sensor_id;sensor_type;location;lat;lon;timestamp;temperature;humidity
16263;DHT22;8239;48.594;8.598;2023-03-11T00:01:17;0.10;99.90
16263;DHT22;8239;48.594;8.598;2023-03-11T00:03:44;0.10;99.90
16263;DHT22;8239;48.594;8.598;2023-03-11T00:06:11;0.10;99.90
16263;DHT22;8239;48.594;8.598;2023-03-11T00:08:38;0.10;99.90
16263;DHT22;8239;48.594;8.598;2023-03-11T00:11:05;0.10;99.90
16263;DHT22;8239;48.594;8.598;2023-03-11T00:13:32;0.10;99.90
16263;DHT22;8239;48.594;8.598;2023-03-11T00:16:03;0.10;99.90
16263;DHT22;8239;48.594;8.598;2023-03-11T00:18:30;0.10;99.90
16263;DHT22;8239;48.594;8.598;2023-03-11T00:20:58;0.10;99.90
16263;DHT22;8239;48.594;8.598;2023-03-11T00:23:26;0.10;99.90
16263;DHT22;8239;48.594;8.598;2023-03-11T00:25:53;0.10;99.90
16263;DHT22;8239;48.594;8.598;2023-03-11T00:28:20;0.10;99.90
16263;DHT22;8239;48.594;8.598;2023-03-11T00:30:50;0.10;99.90
16263;DHT22;8239;48.594;8.598;2023-03-11T00:33:18;0.10;99.90
16263;DHT22;8239;48.594;8.598;2023-03-11T00:35:45;0.10;99.90
16263;DHT22;8239;48.594;8.598;2023-03-11T00:38:14;0.10;99.90
16263;DHT22;8239;48.594;8.598;2023-03-11T00:40:42;0.10;99.90
16263;DHT22;8239;48.594;8.598;2023-03-11T00:43:10;0.10;99.90
16263;DHT22;8239;48.594;8.598;2023-03-11T00:45:37;0.10;99.90
16263;DHT22;8239;48.594;8.598;2023-03-11T00:48:05;0.10;99.90
16263;DHT22;8239;48.594;8.598;2023-03-11T00:50:35;0.10;99.90
16263;DHT22;8239;48.594;8.598;2023-03-11T00:53:03;0.10;99.90
16263;DHT22;8239;48.594;8.598;2023-03-11T00:55:32;0.10;99.90
16263;DHT22;8239;48.594;8.598;2023-03-11T00:58:01;0.10;99.90
16263;DHT22;8239;48.594;8.598;2023-03-11T01:00:29;0.10;99.90
16263;DHT22;8239;48.594;8.598;2023-03-11T01:02:56;0.10;99.90
16263;DHT22;8239;48.594;8.598;2023-03-11T01:05:25;0.10;99.90
16263;DHT22;8239;48.594;8.598;2023-03-11T01:07:54;0.10;99.90
16263;DHT22;8239;48.594;8.598;2023-03-11T01:10:21;0.10;99.90
16263;DHT22;8239;48.594;8.598;2023-03-11T01:12:48;0.10;99.90
16263;DHT22;8239;48.594;8.598;2023-03-11T01:15:18;0.10;99.90
16263;DHT22;8239;48.594;8.598;2023-03-11T01:17:45;0.10;99.90
16263;DHT22;8239;48.594;8.598;2023-03-11T01:20:13;0.10;99.90
16263;DHT22;8239;48.594;8.598;2023-03-11T01:22:40;0.10;99.90
16263;DHT22;8239;48.594;8.598;2023-03-11T01:25:10;0.10;99.90
16263;DHT22;8239;48.594;8.598;2023-03-11T01:27:38;0.00;99.90
16263;DHT22;8239;48.594;8.598;2023-03-11T01:30:06;0.00;99.90
16263;DHT22;8239;48.594;8.598;2023-03-11T01:32:33;0.00;99.90
16263;DHT22;8239;48.594;8.598;2023-03-11T01:35:00;0.00;99.90
16263;DHT22;8239;48.594;8.598;2023-03-11T01:37:27;0.00;99.90
16263;DHT22;8239;48.594;8.598;2023-03-11T01:39:54;0.00;99.90
16263;DHT22;8239;48.594;8.598;2023-03-11T01:42:23;0.00;99.90
16263;DHT22;8239;48.594;8.598;2023-03-11T01:44:50;0.00;99.90
16263;DHT22;8239;48.594;8.598;2023-03-11T01:47:37;0.00;99.90
16263;DHT22;8239;48.594;8.598;2023-03-11T01:50:08;0.00;99.90
16263;DHT22;8239;48.594;8.598;2023-03-11T01:52:37;0.00;99.90
16263;DHT22;8239;48.594;8.598;2023-03-11T01:55:05;0.00;99.90
16263;DHT22;8239;48.594;8.598;2023-03-11T01:57:35;-0.10;99.90
16263;DHT22;8239;48.594;8.598;2023-03-11T02:00:03;-0.10;99.90
16263;DHT22;8239;48.594;8.598;2023-03-11T02:02:35;-0.20;99.90
16263;DHT22;8239;48.594;8.598;2023-03-11T02:05:06;-0.20;99.90
16263;DHT22;8239;48.594;8.598;2023-03-11T02:07:33;-0.30;99.90
16263;DHT22;8239;48.594;8.598;2023-03-11T02:10:00;-0.30;99.90
16263;DHT22;8239;48.594;8.598;2023-03-11T02:12:30;-0.30;99.90
16263;DHT22;8239;48.594;8.598;2023-03-11T02:15:02;-0.30;99.90
16263;DHT22;8239;48.594;8.598;2023-03-11T02:17:29;-0.30;99.90
16263;DHT22;8239;48.594;8.598;2023-03-11T02:20:13;-0.40;99.90
16263;DHT22;8239;48.594;8.598;2023-03-11T02:22:42;-0.30;99.90
16263;DHT22;8239;48.594;8.598;2023-03-11T02:25:15;-0.30;99.90
16263;DHT22;8239;48.594;8.598;2023-03-11T02:27:48;-0.30;99.90
16263;DHT22;8239;48.594;8.598;2023-03-11T02:30:16;-0.30;99.90
16263;DHT22;8239;48.594;8.598;2023-03-11T02:32:44;-0.30;99.90
16263;DHT22;8239;48.594;8.598;2023-03-11T02:35:13;-0.30;99.90
16263;DHT22;8239;48.594;8.598;2023-03-11T02:37:44;-0.30;99.90
16263;DHT22;8239;48.594;8.598;2023-03-11T02:40:49;-0.30;99.90
16263;DHT22;8239;48.594;8.598;2023-03-11T02:43:21;-0.30;99.90
16263;DHT22;8239;48.594;8.598;2023-03-11T02:45:50;-0.30;99.90
16263;DHT22;8239;48.594;8.598;2023-03-11T02:48:18;-0.40;99.90
16263;DHT22;8239;48.594;8.598;2023-03-11T02:50:45;-0.40;99.90
16263;DHT22;8239;48.594;8.598;2023-03-11T02:53:13;-0.40;99.90
16263;DHT22;8239;48.594;8.598;2023-03-11T02:55:40;-0.40;99.90
16263;DHT22;8239;48.594;8.598;2023-03-11T02:58:06;-0.50;99.90
16263;DHT22;8239;48.594;8.598;2023-03-11T03:00:35;-0.50;99.90
16263;DHT22;8239;48.594;8.598;2023-03-11T03:03:03;-0.50;99.90
16263;DHT22;8239;48.594;8.598;2023-03-11T03:05:30;-0.60;99.90
16263;DHT22;8239;48.594;8.598;2023-03-11T03:07:57;-0.60;99.90
16263;DHT22;8239;48.594;8.598;2023-03-11T03:10:25;-0.60;99.90
16263;DHT22;8239;48.594;8.598;2023-03-11T03:12:52;-0.60;99.90
16263;DHT22;8239;48.594;8.598;2023-03-11T03:15:19;-0.70;99.90
16263;DHT22;8239;48.594;8.598;2023-03-11T03:18:03;-0.70;99.90
16263;DHT22;8239;48.594;8.598;2023-03-11T03:20:30;-0.80;99.90
16263;DHT22;8239;48.594;8.598;2023-03-11T03:22:57;-0.90;99.90
16263;DHT22;8239;48.594;8.598;2023-03-11T03:25:24;-0.90;99.90
16263;DHT22;8239;48.594;8.598;2023-03-11T03:27:51;-0.90;99.90
16263;DHT22;8239;48.594;8.598;2023-03-11T03:30:18;-1.00;99.90
16263;DHT22;8239;48.594;8.598;2023-03-11T03:32:46;-1.10;99.90
16263;DHT22;8239;48.594;8.598;2023-03-11T03:35:13;-1.20;99.90
16263;DHT22;8239;48.594;8.598;2023-03-11T03:37:40;-1.30;99.90
16263;DHT22;8239;48.594;8.598;2023-03-11T03:40:08;-1.40;99.90
16263;DHT22;8239;48.594;8.598;2023-03-11T03:42:36;-1.50;99.90
16263;DHT22;8239;48.594;8.598;2023-03-11T03:45:05;-1.60;99.90
16263;DHT22;8239;48.594;8.598;2023-03-11T03:47:33;-1.60;99.90
16263;DHT22;8239;48.594;8.598;2023-03-11T03:50:03;-1.70;99.90
16263;DHT22;8239;48.594;8.598;2023-03-11T03:52:30;-1.80;99.90
16263;DHT22;8239;48.594;8.598;2023-03-11T03:54:57;-1.80;99.90
16263;DHT22;8239;48.594;8.598;2023-03-11T03:57:24;-1.90;99.90
16263;DHT22;8239;48.594;8.598;2023-03-11T03:59:51;-1.90;99.90
16263;DHT22;8239;48.594;8.598;2023-03-11T04:02:18;-2.00;99.90
16263;DHT22;8239;48.594;8.598;2023-03-11T04:04:46;-2.10;99.90
16263;DHT22;8239;48.594;8.598;2023-03-11T04:07:14;-2.10;99.90
16263;DHT22;8239;48.594;8.598;2023-03-11T04:09:42;-2.20;99.90
16263;DHT22;8239;48.594;8.598;2023-03-11T04:12:12;-2.20;99.90
16263;DHT22;8239;48.594;8.598;2023-03-11T04:14:39;-2.30;99.90
16263;DHT22;8239;48.594;8.598;2023-03-11T04:17:07;-2.30;99.90
16263;DHT22;8239;48.594;8.598;2023-03-11T04:19:34;-2.30;99.90
16263;DHT22;8239;48.594;8.598;2023-03-11T04:22:01;-2.30;99.90
16263;DHT22;8239;48.594;8.598;2023-03-11T04:24:29;-2.30;99.90
16263;DHT22;8239;48.594;8.598;2023-03-11T04:26:56;-2.30;99.90
16263;DHT22;8239;48.594;8.598;2023-03-11T04:29:23;-2.30;99.90
16263;DHT22;8239;48.594;8.598;2023-03-11T04:31:50;-2.30;99.90
16263;DHT22;8239;48.594;8.598;2023-03-11T04:34:17;-2.30;99.90
16263;DHT22;8239;48.594;8.598;2023-03-11T04:36:44;-2.30;99.90
16263;DHT22;8239;48.594;8.598;2023-03-11T04:39:11;-2.30;99.90
16263;DHT22;8239;48.594;8.598;2023-03-11T04:41:41;-2.30;99.90
16263;DHT22;8239;48.594;8.598;2023-03-11T04:44:08;-2.30;99.90
16263;DHT22;8239;48.594;8.598;2023-03-11T04:46:35;-2.30;99.90
16263;DHT22;8239;48.594;8.598;2023-03-11T04:49:02;-2.30;99.90
16263;DHT22;8239;48.594;8.598;2023-03-11T04:51:29;-2.30;99.90
16263;DHT22;8239;48.594;8.598;2023-03-11T04:53:56;-2.20;99.90
16263;DHT22;8239;48.594;8.598;2023-03-11T04:56:23;-2.20;99.90
16263;DHT22;8239;48.594;8.598;2023-03-11T04:58:52;-2.20;99.90
16263;DHT22;8239;48.594;8.598;2023-03-11T05:01:19;-2.20;99.90
16263;DHT22;8239;48.594;8.598;2023-03-11T05:03:46;-2.20;99.90
16263;DHT22;8239;48.594;8.598;2023-03-11T05:06:13;-2.20;99.90
16263;DHT22;8239;48.594;8.598;2023-03-11T05:08:40;-2.30;99.90
16263;DHT22;8239;48.594;8.598;2023-03-11T05:11:07;-2.30;99.90
16263;DHT22;8239;48.594;8.598;2023-03-11T05:13:34;-2.30;99.90
16263;DHT22;8239;48.594;8.598;2023-03-11T05:16:03;-2.30;99.90
16263;DHT22;8239;48.594;8.598;2023-03-11T05:18:30;-2.30;99.90
16263;DHT22;8239;48.594;8.598;2023-03-11T05:20:57;-2.40;99.90
16263;DHT22;8239;48.594;8.598;2023-03-11T05:23:24;-2.40;99.90
16263;DHT22;8239;48.594;8.598;2023-03-11T05:25:51;-2.40;99.90
16263;DHT22;8239;48.594;8.598;2023-03-11T05:28:18;-2.50;99.90
16263;DHT22;8239;48.594;8.598;2023-03-11T05:30:45;-2.50;99.90
16263;DHT22;8239;48.594;8.598;2023-03-11T05:33:13;-2.50;99.90
16263;DHT22;8239;48.594;8.598;2023-03-11T05:35:41;-2.60;99.90
16263;DHT22;8239;48.594;8.598;2023-03-11T05:38:08;-2.70;99.90
16263;DHT22;8239;48.594;8.598;2023-03-11T05:40:35;-2.80;99.90
16263;DHT22;8239;48.594;8.598;2023-03-11T05:43:04;-2.80;99.90
16263;DHT22;8239;48.594;8.598;2023-03-11T05:45:31;-2.90;99.90
16263;DHT22;8239;48.594;8.598;2023-03-11T05:47:58;-2.90;99.90
16263;DHT22;8239;48.594;8.598;2023-03-11T05:50:26;-3.00;99.90
16263;DHT22;8239;48.594;8.598;2023-03-11T05:52:53;-3.00;99.90
16263;DHT22;8239;48.594;8.598;2023-03-11T05:55:20;-2.90;99.90
16263;DHT22;8239;48.594;8.598;2023-03-11T05:57:50;-2.90;99.90
16263;DHT22;8239;48.594;8.598;2023-03-11T06:00:17;-2.90;99.90
16263;DHT22;8239;48.594;8.598;2023-03-11T06:02:48;-2.90;99.90
16263;DHT22;8239;48.594;8.598;2023-03-11T06:05:15;-2.80;99.90
16263;DHT22;8239;48.594;8.598;2023-03-11T06:07:43;-2.80;99.90
16263;DHT22;8239;48.594;8.598;2023-03-11T06:10:11;-2.70;99.90
16263;DHT22;8239;48.594;8.598;2023-03-11T06:12:38;-2.40;99.90
16263;DHT22;8239;48.594;8.598;2023-03-11T06:15:09;-2.00;99.90
16263;DHT22;8239;48.594;8.598;2023-03-11T06:17:36;-1.30;99.90
16263;DHT22;8239;48.594;8.598;2023-03-11T06:20:03;-0.20;99.90
16263;DHT22;8239;48.594;8.598;2023-03-11T06:22:31;0.60;99.90
16263;DHT22;8239;48.594;8.598;2023-03-11T06:25:00;1.10;99.90
16263;DHT22;8239;48.594;8.598;2023-03-11T06:27:27;1.60;99.90
16263;DHT22;8239;48.594;8.598;2023-03-11T06:29:54;2.00;99.90
16263;DHT22;8239;48.594;8.598;2023-03-11T06:32:21;2.30;99.90
16263;DHT22;8239;48.594;8.598;2023-03-11T06:34:51;2.50;99.90
16263;DHT22;8239;48.594;8.598;2023-03-11T06:37:18;2.60;99.90
16263;DHT22;8239;48.594;8.598;2023-03-11T06:39:46;2.80;99.90
16263;DHT22;8239;48.594;8.598;2023-03-11T06:42:14;3.40;99.90
16263;DHT22;8239;48.594;8.598;2023-03-11T06:44:41;3.80;99.90
16263;DHT22;8239;48.594;8.598;2023-03-11T06:47:08;4.10;99.90
16263;DHT22;8239;48.594;8.598;2023-03-11T06:49:35;4.00;99.90
16263;DHT22;8239;48.594;8.598;2023-03-11T06:52:05;3.60;99.90
16263;DHT22;8239;48.594;8.598;2023-03-11T06:54:32;3.00;99.90
16263;DHT22;8239;48.594;8.598;2023-03-11T06:56:59;2.50;99.90
16263;DHT22;8239;48.594;8.598;2023-03-11T06:59:28;2.10;99.90
16263;DHT22;8239;48.594;8.598;2023-03-11T07:01:55;1.80;99.90
16263;DHT22;8239;48.594;8.598;2023-03-11T07:04:22;1.60;99.90
16263;DHT22;8239;48.594;8.598;2023-03-11T07:06:49;1.40;99.90
16263;DHT22;8239;48.594;8.598;2023-03-11T07:09:16;1.40;99.90
16263;DHT22;8239;48.594;8.598;2023-03-11T07:11:43;1.50;99.90
16263;DHT22;8239;48.594;8.598;2023-03-11T07:14:10;1.60;99.90
16263;DHT22;8239;48.594;8.598;2023-03-11T07:16:39;1.70;99.90
16263;DHT22;8239;48.594;8.598;2023-03-11T07:19:06;1.80;99.90
16263;DHT22;8239;48.594;8.598;2023-03-11T07:21:33;1.90;99.90
16263;DHT22;8239;48.594;8.598;2023-03-11T07:24:01;2.00;99.90
16263;DHT22;8239;48.594;8.598;2023-03-11T07:26:30;2.20;99.90
16263;DHT22;8239;48.594;8.598;2023-03-11T07:28:58;2.50;99.90
16263;DHT22;8239;48.594;8.598;2023-03-11T07:31:26;2.90;99.90
16263;DHT22;8239;48.594;8.598;2023-03-11T07:33:56;3.80;99.90
16263;DHT22;8239;48.594;8.598;2023-03-11T07:36:24;5.40;99.90
16263;DHT22;8239;48.594;8.598;2023-03-11T07:38:54;7.50;99.90
16263;DHT22;8239;48.594;8.598;2023-03-11T07:41:23;9.70;99.90
16263;DHT22;8239;48.594;8.598;2023-03-11T07:43:53;11.70;98.90
16263;DHT22;8239;48.594;8.598;2023-03-11T07:46:22;13.40;94.70
16263;DHT22;8239;48.594;8.598;2023-03-11T07:48:50;14.50;87.20
16263;DHT22;8239;48.594;8.598;2023-03-11T07:51:20;15.50;82.30
16263;DHT22;8239;48.594;8.598;2023-03-11T07:53:48;16.20;79.60
16263;DHT22;8239;48.594;8.598;2023-03-11T07:56:16;17.00;74.20
16263;DHT22;8239;48.594;8.598;2023-03-11T07:58:44;17.20;64.00
16263;DHT22;8239;48.594;8.598;2023-03-11T08:01:13;17.30;60.70
16263;DHT22;8239;48.594;8.598;2023-03-11T08:03:42;17.60;65.60
16263;DHT22;8239;48.594;8.598;2023-03-11T08:06:13;18.40;68.70
16263;DHT22;8239;48.594;8.598;2023-03-11T08:08:42;19.40;65.90
16263;DHT22;8239;48.594;8.598;2023-03-11T08:11:09;20.30;61.50
16263;DHT22;8239;48.594;8.598;2023-03-11T08:13:37;21.20;58.40
16263;DHT22;8239;48.594;8.598;2023-03-11T08:16:06;22.00;57.20
16263;DHT22;8239;48.594;8.598;2023-03-11T08:18:33;22.70;55.80
16263;DHT22;8239;48.594;8.598;2023-03-11T08:21:03;23.30;56.10
16263;DHT22;8239;48.594;8.598;2023-03-11T08:23:30;23.90;53.00
16263;DHT22;8239;48.594;8.598;2023-03-11T08:26:02;24.40;53.30
16263;DHT22;8239;48.594;8.598;2023-03-11T08:28:29;25.00;53.50
16263;DHT22;8239;48.594;8.598;2023-03-11T08:30:56;25.50;49.70
16263;DHT22;8239;48.594;8.598;2023-03-11T08:33:23;25.90;51.70
16263;DHT22;8239;48.594;8.598;2023-03-11T08:35:50;26.10;50.20
16263;DHT22;8239;48.594;8.598;2023-03-11T08:38:24;26.10;52.30
16263;DHT22;8239;48.594;8.598;2023-03-11T08:40:51;26.10;47.20
16263;DHT22;8239;48.594;8.598;2023-03-11T08:43:23;26.30;45.30
16263;DHT22;8239;48.594;8.598;2023-03-11T08:45:50;26.30;49.50
16263;DHT22;8239;48.594;8.598;2023-03-11T08:48:17;26.40;50.00
16263;DHT22;8239;48.594;8.598;2023-03-11T08:50:44;26.70;46.50
16263;DHT22;8239;48.594;8.598;2023-03-11T08:53:11;27.10;47.50
16263;DHT22;8239;48.594;8.598;2023-03-11T08:55:38;27.50;47.00
16263;DHT22;8239;48.594;8.598;2023-03-11T08:58:05;26.60;42.30
16263;DHT22;8239;48.594;8.598;2023-03-11T09:00:34;24.70;40.30
16263;DHT22;8239;48.594;8.598;2023-03-11T09:03:01;23.50;48.80
16263;DHT22;8239;48.594;8.598;2023-03-11T09:05:27;23.30;51.70
16263;DHT22;8239;48.594;8.598;2023-03-11T09:07:54;23.90;53.40
16263;DHT22;8239;48.594;8.598;2023-03-11T09:10:21;24.50;52.60
16263;DHT22;8239;48.594;8.598;2023-03-11T09:12:59;24.10;49.50
16263;DHT22;8239;48.594;8.598;2023-03-11T09:15:28;23.60;44.40
16263;DHT22;8239;48.594;8.598;2023-03-11T09:17:57;22.80;48.40
16263;DHT22;8239;48.594;8.598;2023-03-11T09:20:24;22.80;47.90
16263;DHT22;8239;48.594;8.598;2023-03-11T09:22:51;23.30;48.60
16263;DHT22;8239;48.594;8.598;2023-03-11T09:25:18;24.10;51.80
16263;DHT22;8239;48.594;8.598;2023-03-11T09:27:45;25.10;50.80
16263;DHT22;8239;48.594;8.598;2023-03-11T09:30:13;26.10;48.70
16263;DHT22;8239;48.594;8.598;2023-03-11T09:32:40;26.90;43.70
16263;DHT22;8239;48.594;8.598;2023-03-11T09:35:09;27.60;47.10
16263;DHT22;8239;48.594;8.598;2023-03-11T09:37:37;28.20;45.70
16263;DHT22;8239;48.594;8.598;2023-03-11T09:40:05;28.60;44.70
16263;DHT22;8239;48.594;8.598;2023-03-11T09:42:36;28.50;46.60
16263;DHT22;8239;48.594;8.598;2023-03-11T09:45:13;28.40;46.50
16263;DHT22;8239;48.594;8.598;2023-03-11T09:47:46;28.00;43.90
16263;DHT22;8239;48.594;8.598;2023-03-11T09:50:28;27.50;43.20
16263;DHT22;8239;48.594;8.598;2023-03-11T09:53:11;26.90;43.00
16263;DHT22;8239;48.594;8.598;2023-03-11T09:55:45;26.40;41.50
16263;DHT22;8239;48.594;8.598;2023-03-11T09:58:16;26.20;42.40
16263;DHT22;8239;48.594;8.598;2023-03-11T10:00:46;25.90;44.70
16263;DHT22;8239;48.594;8.598;2023-03-11T10:03:25;25.40;43.80
16263;DHT22;8239;48.594;8.598;2023-03-11T10:06:00;25.20;42.60
16263;DHT22;8239;48.594;8.598;2023-03-11T10:08:33;25.00;40.60
16263;DHT22;8239;48.594;8.598;2023-03-11T10:11:13;24.90;40.20
16263;DHT22;8239;48.594;8.598;2023-03-11T10:13:46;25.10;40.10
16263;DHT22;8239;48.594;8.598;2023-03-11T10:16:23;25.60;42.40
16263;DHT22;8239;48.594;8.598;2023-03-11T10:18:56;25.90;36.70
16263;DHT22;8239;48.594;8.598;2023-03-11T10:21:38;25.10;43.60
16263;DHT22;8239;48.594;8.598;2023-03-11T10:24:26;23.00;48.40
16263;DHT22;8239;48.594;8.598;2023-03-11T10:26:58;20.40;50.70
16263;DHT22;8239;48.594;8.598;2023-03-11T10:29:29;19.60;46.70
16263;DHT22;8239;48.594;8.598;2023-03-11T10:32:01;19.50;54.60
16263;DHT22;8239;48.594;8.598;2023-03-11T10:34:34;18.70;51.10
16263;DHT22;8239;48.594;8.598;2023-03-11T10:37:10;18.00;52.50
16263;DHT22;8239;48.594;8.598;2023-03-11T10:39:40;17.40;58.00
16263;DHT22;8239;48.594;8.598;2023-03-11T10:42:11;17.10;58.00
16263;DHT22;8239;48.594;8.598;2023-03-11T10:44:41;16.80;52.60
16263;DHT22;8239;48.594;8.598;2023-03-11T10:47:15;15.80;58.80
16263;DHT22;8239;48.594;8.598;2023-03-11T10:49:43;14.50;60.50
16263;DHT22;8239;48.594;8.598;2023-03-11T10:52:11;13.40;62.20
16263;DHT22;8239;48.594;8.598;2023-03-11T10:54:40;12.30;60.40
16263;DHT22;8239;48.594;8.598;2023-03-11T10:57:30;11.60;55.10
16263;DHT22;8239;48.594;8.598;2023-03-11T11:00:00;11.10;55.90
16263;DHT22;8239;48.594;8.598;2023-03-11T11:02:28;10.80;64.50
16263;DHT22;8239;48.594;8.598;2023-03-11T11:05:20;10.90;65.30
16263;DHT22;8239;48.594;8.598;2023-03-11T11:08:02;12.10;59.60
16263;DHT22;8239;48.594;8.598;2023-03-11T11:10:30;14.20;64.80
16263;DHT22;8239;48.594;8.598;2023-03-11T11:12:59;15.30;63.20
16263;DHT22;8239;48.594;8.598;2023-03-11T11:15:29;15.70;61.70
16263;DHT22;8239;48.594;8.598;2023-03-11T11:17:59;15.20;62.30
16263;DHT22;8239;48.594;8.598;2023-03-11T11:20:27;15.00;65.00
16263;DHT22;8239;48.594;8.598;2023-03-11T11:22:57;15.40;68.70
16263;DHT22;8239;48.594;8.598;2023-03-11T11:25:27;16.10;71.80
16263;DHT22;8239;48.594;8.598;2023-03-11T11:27:57;17.00;72.10
16263;DHT22;8239;48.594;8.598;2023-03-11T11:30:28;18.00;69.40
16263;DHT22;8239;48.594;8.598;2023-03-11T11:32:56;18.30;62.00
16263;DHT22;8239;48.594;8.598;2023-03-11T11:35:48;18.50;61.00
16263;DHT22;8239;48.594;8.598;2023-03-11T11:38:17;18.70;59.40
16263;DHT22;8239;48.594;8.598;2023-03-11T11:40:45;18.90;58.10
16263;DHT22;8239;48.594;8.598;2023-03-11T11:43:16;18.90;51.90
16263;DHT22;8239;48.594;8.598;2023-03-11T11:45:45;18.30;56.30
16263;DHT22;8239;48.594;8.598;2023-03-11T11:48:18;18.10;58.60
16263;DHT22;8239;48.594;8.598;2023-03-11T11:50:51;18.10;58.20
16263;DHT22;8239;48.594;8.598;2023-03-11T11:53:27;18.20;60.90
16263;DHT22;8239;48.594;8.598;2023-03-11T11:55:56;18.30;57.00
16263;DHT22;8239;48.594;8.598;2023-03-11T11:58:23;18.70;61.20
16263;DHT22;8239;48.594;8.598;2023-03-11T12:01:05;19.00;62.10
16263;DHT22;8239;48.594;8.598;2023-03-11T12:03:56;18.90;55.10
16263;DHT22;8239;48.594;8.598;2023-03-11T12:06:30;18.50;55.00
16263;DHT22;8239;48.594;8.598;2023-03-11T12:09:09;18.20;55.10
16263;DHT22;8239;48.594;8.598;2023-03-11T12:11:42;18.10;55.20
16263;DHT22;8239;48.594;8.598;2023-03-11T12:14:20;18.30;58.10
16263;DHT22;8239;48.594;8.598;2023-03-11T12:16:53;18.50;53.90
16263;DHT22;8239;48.594;8.598;2023-03-11T12:19:33;18.30;48.90
16263;DHT22;8239;48.594;8.598;2023-03-11T12:25:27;18.70;52.70
16263;DHT22;8239;48.594;8.598;2023-03-11T12:28:00;19.40;55.30
16263;DHT22;8239;48.594;8.598;2023-03-11T12:30:35;20.00;52.60
16263;DHT22;8239;48.594;8.598;2023-03-11T12:33:05;20.10;48.70
16263;DHT22;8239;48.594;8.598;2023-03-11T12:35:35;20.00;46.70
16263;DHT22;8239;48.594;8.598;2023-03-11T12:38:15;19.80;45.40
16263;DHT22;8239;48.594;8.598;2023-03-11T12:40:57;19.40;44.40
16263;DHT22;8239;48.594;8.598;2023-03-11T12:43:58;19.20;44.70
16263;DHT22;8239;48.594;8.598;2023-03-11T12:46:58;19.00;45.70
16263;DHT22;8239;48.594;8.598;2023-03-11T12:49:27;19.10;46.10
16263;DHT22;8239;48.594;8.598;2023-03-11T12:52:04;19.40;46.00
16263;DHT22;8239;48.594;8.598;2023-03-11T12:54:32;19.60;42.30
16263;DHT22;8239;48.594;8.598;2023-03-11T12:57:02;19.80;45.90
16263;DHT22;8239;48.594;8.598;2023-03-11T13:00:02;20.00;45.60
16263;DHT22;8239;48.594;8.598;2023-03-11T13:05:30;19.30;40.20
16263;DHT22;8239;48.594;8.598;2023-03-11T13:08:07;17.40;42.10
16263;DHT22;8239;48.594;8.598;2023-03-11T13:10:38;15.50;47.20
16263;DHT22;8239;48.594;8.598;2023-03-11T13:13:33;14.00;50.20
16263;DHT22;8239;48.594;8.598;2023-03-11T13:16:35;13.10;53.10
16263;DHT22;8239;48.594;8.598;2023-03-11T13:19:46;13.50;58.20
16263;DHT22;8239;48.594;8.598;2023-03-11T13:22:42;15.10;59.50
16263;DHT22;8239;48.594;8.598;2023-03-11T13:25:26;17.20;55.70
16263;DHT22;8239;48.594;8.598;2023-03-11T13:28:00;18.50;50.20
16263;DHT22;8239;48.594;8.598;2023-03-11T13:30:33;17.70;46.50
16263;DHT22;8239;48.594;8.598;2023-03-11T13:33:17;16.20;47.10
16263;DHT22;8239;48.594;8.598;2023-03-11T13:36:09;14.20;43.20
16263;DHT22;8239;48.594;8.598;2023-03-11T13:38:55;13.80;53.80
16263;DHT22;8239;48.594;8.598;2023-03-11T13:41:29;14.90;56.80
16263;DHT22;8239;48.594;8.598;2023-03-11T13:44:02;16.90;57.80
16263;DHT22;8239;48.594;8.598;2023-03-11T13:46:36;18.80;54.60
16263;DHT22;8239;48.594;8.598;2023-03-11T13:49:07;20.30;50.80
16263;DHT22;8239;48.594;8.598;2023-03-11T13:51:39;21.30;45.60
16263;DHT22;8239;48.594;8.598;2023-03-11T13:54:22;21.90;46.90
16263;DHT22;8239;48.594;8.598;2023-03-11T13:56:54;22.50;45.20
16263;DHT22;8239;48.594;8.598;2023-03-11T13:59:24;22.90;42.30
16263;DHT22;8239;48.594;8.598;2023-03-11T14:01:55;23.20;44.80
16263;DHT22;8239;48.594;8.598;2023-03-11T14:04:27;23.80;45.50
16263;DHT22;8239;48.594;8.598;2023-03-11T14:06:54;24.60;47.20
16263;DHT22;8239;48.594;8.598;2023-03-11T14:09:23;25.20;39.90
16263;DHT22;8239;48.594;8.598;2023-03-11T14:11:52;25.10;37.60
16263;DHT22;8239;48.594;8.598;2023-03-11T14:14:33;24.80;41.00
16263;DHT22;8239;48.594;8.598;2023-03-11T14:17:03;24.40;37.50
16263;DHT22;8239;48.594;8.598;2023-03-11T14:19:31;23.60;39.60
16263;DHT22;8239;48.594;8.598;2023-03-11T14:21:58;23.20;40.40
16263;DHT22;8239;48.594;8.598;2023-03-11T14:24:27;23.00;41.60
16263;DHT22;8239;48.594;8.598;2023-03-11T14:26:56;22.70;39.90
16263;DHT22;8239;48.594;8.598;2023-03-11T14:29:29;22.30;41.00
16263;DHT22;8239;48.594;8.598;2023-03-11T14:31:58;21.80;42.20
16263;DHT22;8239;48.594;8.598;2023-03-11T14:34:27;21.30;43.30
16263;DHT22;8239;48.594;8.598;2023-03-11T14:36:57;20.90;43.10
16263;DHT22;8239;48.594;8.598;2023-03-11T14:39:29;20.80;44.40
16263;DHT22;8239;48.594;8.598;2023-03-11T14:42:01;20.50;43.20
16263;DHT22;8239;48.594;8.598;2023-03-11T14:44:30;19.80;43.20
16263;DHT22;8239;48.594;8.598;2023-03-11T14:47:04;19.20;45.30
16263;DHT22;8239;48.594;8.598;2023-03-11T14:49:34;18.70;46.30
16263;DHT22;8239;48.594;8.598;2023-03-11T14:52:05;18.50;48.00
16263;DHT22;8239;48.594;8.598;2023-03-11T14:54:35;18.30;47.10
16263;DHT22;8239;48.594;8.598;2023-03-11T14:57:05;17.70;45.30
16263;DHT22;8239;48.594;8.598;2023-03-11T14:59:33;16.60;44.70
16263;DHT22;8239;48.594;8.598;2023-03-11T15:02:22;15.30;47.30
16263;DHT22;8239;48.594;8.598;2023-03-11T15:04:55;14.20;49.10
16263;DHT22;8239;48.594;8.598;2023-03-11T15:07:23;12.80;45.60
16263;DHT22;8239;48.594;8.598;2023-03-11T15:09:50;11.80;50.30
16263;DHT22;8239;48.594;8.598;2023-03-11T15:12:31;11.10;52.80
16263;DHT22;8239;48.594;8.598;2023-03-11T15:14:59;10.60;56.00
16263;DHT22;8239;48.594;8.598;2023-03-11T15:17:27;10.30;57.50
16263;DHT22;8239;48.594;8.598;2023-03-11T15:19:58;10.10;59.10
16263;DHT22;8239;48.594;8.598;2023-03-11T15:22:26;9.90;60.30
16263;DHT22;8239;48.594;8.598;2023-03-11T15:24:56;9.70;60.00
16263;DHT22;8239;48.594;8.598;2023-03-11T15:27:29;9.30;58.90
16263;DHT22;8239;48.594;8.598;2023-03-11T15:29:58;8.90;58.00
16263;DHT22;8239;48.594;8.598;2023-03-11T15:32:37;8.50;58.20
16263;DHT22;8239;48.594;8.598;2023-03-11T15:35:15;8.10;61.70
16263;DHT22;8239;48.594;8.598;2023-03-11T15:37:43;7.90;64.00
16263;DHT22;8239;48.594;8.598;2023-03-11T15:40:17;7.80;64.90
16263;DHT22;8239;48.594;8.598;2023-03-11T15:42:44;7.70;66.50
16263;DHT22;8239;48.594;8.598;2023-03-11T15:45:16;7.70;67.40
16263;DHT22;8239;48.594;8.598;2023-03-11T15:47:44;7.70;68.80
16263;DHT22;8239;48.594;8.598;2023-03-11T15:50:19;7.70;70.70
16263;DHT22;8239;48.594;8.598;2023-03-11T15:52:48;7.70;72.00
16263;DHT22;8239;48.594;8.598;2023-03-11T15:55:15;7.70;73.00
16263;DHT22;8239;48.594;8.598;2023-03-11T15:57:44;7.60;72.30
16263;DHT22;8239;48.594;8.598;2023-03-11T16:00:18;7.40;71.40
16263;DHT22;8239;48.594;8.598;2023-03-11T16:02:47;7.40;71.60
16263;DHT22;8239;48.594;8.598;2023-03-11T16:05:17;7.40;71.70
16263;DHT22;8239;48.594;8.598;2023-03-11T16:07:45;7.60;71.70
16263;DHT22;8239;48.594;8.598;2023-03-11T16:10:14;7.60;70.60
16263;DHT22;8239;48.594;8.598;2023-03-11T16:12:41;7.60;69.90
16263;DHT22;8239;48.594;8.598;2023-03-11T16:15:19;7.50;69.50
16263;DHT22;8239;48.594;8.598;2023-03-11T16:17:50;7.20;69.40